PWSweather.com
Personal Weather Stations
Station Observations
KMAMEDFI2
Medfield, MA 02052

Medfield, MA 02052

Lat: 42.1900822, Lon: -71.3296889

Elevation: 138

Station Type: Rainwise WS MK-III

http://www.medfieldweather.com

Latest ConditionsUpdated 10:50:00 AM EST Friday, Jan 20, 2017
Currently Today's Max Today's Min Today's Average
Temperature 37.9°F3.3°C 37.9°F3.3°C 27.1°F-2.7°C 31.1°F-0.5°C
Dew Point 34.9°F1.6°C 34.9°F1.6°C 25.6°F-3.6°C 29.4°F-1.4°C
Winds 0.5 mph ESE0.8 kmh ESE 2.7 mph W4.3 kmh W - 0.1 mph 0.2 kmh
Wind Gusts 2.6 mph4.2 kmh 2.6 mph4.2 kmh - -
Humidity 89% 95% 85% 93%
Pressure 30.03 in1016.9 mb 30.03 in1016.9 mb 29.97 in1014.9 mb -
Hour Temp Dew Point Humidity Winds Wind Gusts Pressure Precip Precip Rate Daily Precip Total
10:50 AM 37.9°F3.3°C 34.9°F1.6°C 89% 0.5 mph ESE0.8 kmh ESE 2.6 mph4.2 kmh 30.03 in1016.9 mb - 0.00 in0.0 mm 0.00 in0.0 mm
10:40 AM 37.6°F3.1°C 34.7°F1.5°C 89% 0.6 mph ESE1.0 kmh ESE 2.6 mph4.2 kmh 30.03 in1016.9 mb - 0.00 in0.0 mm 0.00 in0.0 mm
10:30 AM 37.4°F3.0°C 34.4°F1.3°C 89% Calm Calm -- 30.03 in1016.9 mb - 0.00 in0.0 mm 0.00 in0.0 mm
10:20 AM 36.8°F2.7°C 34.7°F1.5°C 92% 0.2 mph NE0.3 kmh NE 1.3 mph2.1 kmh 30.03 in1016.9 mb - 0.00 in0.0 mm 0.00 in0.0 mm
10:10 AM 36.2°F2.3°C 34.7°F1.5°C 94% Calm Calm -- 30.03 in1016.9 mb - 0.00 in0.0 mm 0.00 in0.0 mm
10:00 AM 35.8°F2.1°C 34.5°F1.4°C 95% Calm Calm 1.3 mph2.1 kmh 30.03 in1016.9 mb - 0.00 in0.0 mm 0.00 in0.0 mm
09:50 AM 35.2°F1.8°C 33.9°F1.1°C 95% Calm Calm -- 30.03 in1016.9 mb - 0.00 in0.0 mm 0.00 in0.0 mm
09:40 AM 34.6°F1.4°C 33.4°F0.8°C 95% Calm Calm -- 30.03 in1016.9 mb - 0.00 in0.0 mm 0.00 in0.0 mm
09:30 AM 34.1°F1.2°C 32.8°F0.4°C 95% Calm Calm -- 30.03 in1016.9 mb - 0.00 in0.0 mm 0.00 in0.0 mm
09:20 AM 33.7°F0.9°C 32.4°F0.2°C 95% Calm Calm -- 30.03 in1016.9 mb - 0.00 in0.0 mm 0.00 in0.0 mm
09:10 AM 33.2°F0.7°C 31.9°F-0.1°C 95% Calm Calm -- 30.03 in1016.9 mb - 0.00 in0.0 mm 0.00 in0.0 mm
09:00 AM 32.8°F0.4°C 31.6°F-0.2°C 95% Calm Calm -- 30.03 in1016.9 mb - 0.00 in0.0 mm 0.00 in0.0 mm
08:50 AM 32.5°F0.3°C 31.3°F-0.4°C 95% Calm Calm -- 30.02 in1016.6 mb - 0.00 in0.0 mm 0.00 in0.0 mm
08:40 AM 32.2°F0.1°C 30.9°F-0.6°C 95% Calm Calm -- 30.02 in1016.6 mb - 0.00 in0.0 mm 0.00 in0.0 mm
08:30 AM 31.8°F-0.1°C 30.5°F-0.8°C 95% 2.7 mph W4.3 kmh W 2.6 mph4.2 kmh 30.01 in1016.3 mb - 0.00 in0.0 mm 0.00 in0.0 mm
08:20 AM 31.5°F-0.3°C 30.3°F-0.9°C 95% Calm Calm -- 30.01 in1016.3 mb - 0.00 in0.0 mm 0.00 in0.0 mm
08:10 AM 31.2°F-0.4°C 30.0°F-1.1°C 95% Calm Calm -- 30.00 in1015.9 mb - 0.00 in0.0 mm 0.00 in0.0 mm
08:00 AM 31.0°F-0.6°C 29.8°F-1.2°C 95% Calm Calm -- 30.00 in1015.9 mb - 0.00 in0.0 mm 0.00 in0.0 mm
07:50 AM 30.8°F-0.7°C 29.3°F-1.5°C 94% Calm Calm -- 30.00 in1015.9 mb - 0.00 in0.0 mm 0.00 in0.0 mm
07:40 AM 30.7°F-0.7°C 29.2°F-1.6°C 94% Calm Calm -- 30.00 in1015.9 mb - 0.00 in0.0 mm 0.00 in0.0 mm
07:30 AM 30.5°F-0.8°C 28.9°F-1.7°C 94% Calm Calm -- 30.00 in1015.9 mb - 0.00 in0.0 mm 0.00 in0.0 mm
07:20 AM 30.1°F-1.1°C 28.6°F-1.9°C 94% Calm Calm -- 30.00 in1015.9 mb - 0.00 in0.0 mm 0.00 in0.0 mm
07:10 AM 29.8°F-1.2°C 28.3°F-2.1°C 94% 0.8 mph W1.3 kmh W 2.6 mph4.2 kmh 29.99 in1015.6 mb - 0.00 in0.0 mm 0.00 in0.0 mm
07:00 AM 29.7°F-1.3°C 28.1°F-2.2°C 94% Calm Calm -- 30.00 in1015.9 mb - 0.00 in0.0 mm 0.00 in0.0 mm
06:50 AM 29.5°F-1.4°C 27.9°F-2.3°C 94% Calm Calm -- 29.99 in1015.6 mb - 0.00 in0.0 mm 0.00 in0.0 mm
06:40 AM 29.4°F-1.4°C 27.9°F-2.3°C 94% Calm Calm -- 29.99 in1015.6 mb - 0.00 in0.0 mm 0.00 in0.0 mm
06:30 AM 29.3°F-1.5°C 27.7°F-2.4°C 94% Calm Calm -- 29.99 in1015.6 mb - 0.00 in0.0 mm 0.00 in0.0 mm
06:20 AM 29.2°F-1.6°C 27.7°F-2.4°C 94% Calm Calm -- 29.99 in1015.6 mb - 0.00 in0.0 mm 0.00 in0.0 mm
06:10 AM 29.1°F-1.6°C 27.6°F-2.4°C 94% Calm Calm -- 29.99 in1015.6 mb - 0.00 in0.0 mm 0.00 in0.0 mm
06:00 AM 29.0°F-1.7°C 27.5°F-2.5°C 94% 1.5 mph W2.4 kmh W 2.6 mph4.2 kmh 29.99 in1015.6 mb - 0.00 in0.0 mm 0.00 in0.0 mm
05:50 AM 28.9°F-1.7°C 27.3°F-2.6°C 94% Calm Calm -- 29.99 in1015.6 mb - 0.00 in0.0 mm 0.00 in0.0 mm
05:40 AM 28.7°F-1.8°C 27.2°F-2.7°C 94% Calm Calm -- 29.99 in1015.6 mb - 0.00 in0.0 mm 0.00 in0.0 mm
05:30 AM 28.2°F-2.1°C 26.7°F-2.9°C 94% Calm Calm -- 30.00 in1015.9 mb - 0.00 in0.0 mm 0.00 in0.0 mm
05:20 AM 27.8°F-2.3°C 26.3°F-3.2°C 94% Calm Calm -- 30.00 in1015.9 mb - 0.00 in0.0 mm 0.00 in0.0 mm
05:10 AM 27.7°F-2.4°C 26.2°F-3.2°C 94% Calm Calm -- 29.99 in1015.6 mb - 0.00 in0.0 mm 0.00 in0.0 mm
05:00 AM 27.7°F-2.4°C 26.2°F-3.2°C 94% Calm Calm -- 29.99 in1015.6 mb - 0.00 in0.0 mm 0.00 in0.0 mm
04:50 AM 27.3°F-2.6°C 25.8°F-3.4°C 94% Calm Calm -- 29.99 in1015.6 mb - 0.00 in0.0 mm 0.00 in0.0 mm
04:40 AM 27.1°F-2.7°C 25.6°F-3.6°C 94% Calm Calm -- 29.99 in1015.6 mb - 0.00 in0.0 mm 0.00 in0.0 mm
04:30 AM 27.2°F-2.7°C 25.7°F-3.5°C 94% Calm Calm -- 29.99 in1015.6 mb - 0.00 in0.0 mm 0.00 in0.0 mm
04:20 AM 27.5°F-2.5°C 26.0°F-3.3°C 94% Calm Calm -- 29.99 in1015.6 mb - 0.00 in0.0 mm 0.00 in0.0 mm
04:10 AM 27.2°F-2.7°C 25.7°F-3.5°C 94% Calm Calm -- 29.99 in1015.6 mb - 0.00 in0.0 mm 0.00 in0.0 mm
04:00 AM 27.4°F-2.6°C 25.9°F-3.4°C 94% Calm Calm -- 29.99 in1015.6 mb - 0.00 in0.0 mm 0.00 in0.0 mm
03:50 AM 28.1°F-2.2°C 26.6°F-3.0°C 94% Calm Calm -- 30.00 in1015.9 mb - 0.00 in0.0 mm 0.00 in0.0 mm
03:40 AM 28.8°F-1.8°C 27.3°F-2.6°C 94% Calm Calm -- 30.00 in1015.9 mb - 0.00 in0.0 mm 0.00 in0.0 mm
03:30 AM 29.2°F-1.6°C 27.7°F-2.4°C 94% Calm Calm 1.3 mph2.1 kmh 30.00 in1015.9 mb - 0.00 in0.0 mm 0.00 in0.0 mm
03:20 AM 28.9°F-1.7°C 27.4°F-2.6°C 94% 0.4 mph WNW0.6 kmh WNW 1.3 mph2.1 kmh 30.00 in1015.9 mb - 0.00 in0.0 mm 0.00 in0.0 mm
03:10 AM 28.1°F-2.2°C 26.6°F-3.0°C 94% 0.3 mph WNW0.5 kmh WNW 2.6 mph4.2 kmh 30.00 in1015.9 mb - 0.00 in0.0 mm 0.00 in0.0 mm
03:00 AM 28.0°F-2.2°C 26.5°F-3.1°C 94% Calm Calm -- 29.99 in1015.6 mb - 0.00 in0.0 mm 0.00 in0.0 mm
02:50 AM 28.3°F-2.1°C 26.8°F-2.9°C 94% 0.2 mph WSW0.3 kmh WSW -- 29.99 in1015.6 mb - 0.00 in0.0 mm 0.00 in0.0 mm
02:40 AM 28.7°F-1.8°C 27.2°F-2.7°C 94% Calm Calm -- 29.99 in1015.6 mb - 0.00 in0.0 mm 0.00 in0.0 mm
02:30 AM 28.9°F-1.7°C 27.3°F-2.6°C 94% 0.5 mph WSW0.8 kmh WSW 2.6 mph4.2 kmh 29.98 in1015.2 mb - 0.00 in0.0 mm 0.00 in0.0 mm
02:20 AM 28.5°F-1.9°C 26.9°F-2.8°C 94% 0.1 mph WSW0.2 kmh WSW 1.3 mph2.1 kmh 29.97 in1014.9 mb - 0.00 in0.0 mm 0.00 in0.0 mm
02:10 AM 28.7°F-1.8°C 27.2°F-2.7°C 94% Calm Calm -- 29.97 in1014.9 mb - 0.00 in0.0 mm 0.00 in0.0 mm
02:00 AM 29.1°F-1.6°C 27.6°F-2.4°C 94% Calm Calm -- 29.98 in1015.2 mb - 0.00 in0.0 mm 0.00 in0.0 mm
01:50 AM 29.6°F-1.3°C 28.1°F-2.2°C 94% Calm Calm -- 29.99 in1015.6 mb - 0.00 in0.0 mm 0.00 in0.0 mm
01:40 AM 30.3°F-0.9°C 28.8°F-1.8°C 94% Calm Calm -- 29.99 in1015.6 mb - 0.00 in0.0 mm 0.00 in0.0 mm
01:30 AM 30.3°F-0.9°C 28.8°F-1.8°C 94% Calm Calm -- 29.99 in1015.6 mb - 0.00 in0.0 mm 0.00 in0.0 mm
01:20 AM 31.0°F-0.6°C 29.5°F-1.4°C 94% Calm Calm -- 29.99 in1015.6 mb - 0.00 in0.0 mm 0.00 in0.0 mm
01:10 AM 32.1°F0.1°C 30.8°F-0.7°C 95% Calm Calm -- 29.99 in1015.6 mb - 0.00 in0.0 mm 0.00 in0.0 mm
01:00 AM 33.2°F0.7°C 31.9°F-0.1°C 95% Calm Calm -- 29.99 in1015.6 mb - 0.00 in0.0 mm 0.00 in0.0 mm
12:50 AM 33.8°F1.0°C 32.2°F0.1°C 94% Calm Calm 1.3 mph2.1 kmh 29.99 in1015.6 mb - 0.00 in0.0 mm 0.00 in0.0 mm
12:40 AM 34.6°F1.4°C 32.6°F0.3°C 92% Calm Calm -- 29.99 in1015.6 mb - 0.00 in0.0 mm 0.00 in0.0 mm
12:30 AM 35.5°F1.9°C 32.3°F0.2°C 88% Calm Calm -- 29.99 in1015.6 mb - 0.00 in0.0 mm 0.00 in0.0 mm
12:20 AM 36.2°F2.3°C 32.4°F0.2°C 86% Calm Calm 1.3 mph2.1 kmh 29.99 in1015.6 mb - 0.00 in0.0 mm 0.00 in0.0 mm
12:10 AM 37.2°F2.9°C 33.2°F0.7°C 85% 0.5 mph N0.8 kmh N 2.6 mph4.2 kmh 30.00 in1015.9 mb - 0.00 in0.0 mm 0.00 in0.0 mm
12:00 AM 37.8°F3.2°C 33.7°F0.9°C 85% 1.0 mph ENE1.6 kmh ENE 2.6 mph4.2 kmh 30.00 in1015.9 mb - 0.00 in0.0 mm 0.00 in0.0 mm